3MD3 weather

Hoopers Heliport
Ocean City, Maryland, United States

Public forecast

Using degrees Fahrenheit for public forecast. Weather courtesy of forecast.io.

Closest aviation weather report (METAR) to Hoopers Heliport

Closest report is Ocean City Municipal Airport, 0.2 nm (0.3 km) WSW. Retrieved 2020/04/05 21:53 UTC (39 minutes ago):

KOXB 052153Z AUTO 21009KT 10SM CLR 14/06 A3005 RMK AO2 SLP176 T01390056

Closest aviation forecast (TAF) to Hoopers Heliport

Closest forecast is Salisbury Ocean City Wicomico Regional Airport, 18.4 nm (34.2 km) W. Retrieved 2020/04/05 18:22 UTC (4 hours ago):

TAF KSBY 051720Z 0518/0618 24008KT P6SM SCT050 FM060000 19005KT P6SM SCT090 FM060600 22005KT P6SM BKN060 FM061200 31004KT P6SM BKN040 FM061500 01008KT P6SM SCT040